Düsseldorf International Airport EDDL

Flugplatz Daten

Name: Düsseldorf International Airport

Ident: EDDL

Lat: 51,28950119

Long: 6,7667799

Platzhöhe: 147 ft

IataCode: DUS

City: Düsseldorf

Homepage: http://www.duesseldorf-international.de/

Metar

2022/08/15 18:50
EDDL 151850Z AUTO 23004KT CAVOK 23/15 Q1005 NOSIG

Taf

2022/08/15 18:27
TAF EDDL 151700Z 1518/1624 18005KT 9999 FEW040
TEMPO 1603/1607 16010KT
BECMG 1609/1612 24007KT
BECMG 1618/1621 05004KT
Gewünschte Webcam nicht vorhanden? Dann fügen Sie eine hinzu. Sie wird dann so schnell wie möglich freigeschaltet
Url: Title: